Terminal Aerodrome Forecast
Issued by NWS Shreveport, LA

Home | Current Version | Previous Version | Text Only | Print | Product List | Glossary On
Versions: 1 2 3 4 5 6 7 8 9 10 11 12 13 14 15 16 17 18
914
FTUS44 KSHV 070539
TAFTXK
TAF
KTXK 070539Z 0706/0806 VRB03KT P6SM OVC035
     FM070900 07005KT P6SM OVC020
      TEMPO 0709/0713 4SM -DZ BR OVC005
     FM071300 07005KT 4SM -DZ BR OVC010
     FM071600 08006KT P6SM VCSH OVC015
     FM080000 04006KT P6SM VCSH OVC010=

USA.gov is the U.S. government's official web portal to all federal, state and local government web resources and services.